Time;durP1;ratioP1;P1;durP2;ratioP2;P2;SDS_P1;SDS_P2;PMS_P1;PMS_P2;Temp;Humidity;BMP_temperature;BMP_pressure;BME280_temperature;BME280_humidity;BME280_pressure;Samples;Min_cycle;Max_cycle;Signal;HPM_P1;HPM_P2
2022/01/22 00:01:56;;;;;;;17.25;8.80;;;;;;;4.18;87.14;103287.13;5070302;28;20024;-68
2022/01/22 00:04:21;;;;;;;21.08;9.32;;;;;;;4.18;87.28;103295.03;5071791;28;20029;-67
2022/01/22 00:06:49;;;;;;;16.83;9.05;;;;;;;4.19;87.78;103294.16;5070135;28;20112;-68
2022/01/22 00:09:14;;;;;;;15.13;8.75;;;;;;;4.20;87.13;103285.38;5069141;28;20422;-68
2022/01/22 00:11:51;;;;;;;19.13;8.65;;;;;;;4.21;87.48;103288.00;5070050;28;20032;-68
2022/01/22 00:14:26;;;;;;;17.70;9.38;;;;;;;4.21;87.20;103279.25;5069455;28;20043;-68
2022/01/22 00:16:57;;;;;;;18.52;9.20;;;;;;;4.19;87.52;103276.59;5070838;28;20484;-68
2022/01/22 00:19:23;;;;;;;18.67;8.40;;;;;;;4.21;87.13;103280.13;5074028;28;20495;-68
2022/01/22 00:21:50;;;;;;;16.83;8.05;;;;;;;4.19;87.18;103284.50;5073864;28;20107;-68
2022/01/22 00:24:16;;;;;;;15.80;8.30;;;;;;;4.20;87.74;103282.72;5074214;28;20036;-68
2022/01/22 00:26:42;;;;;;;13.43;8.40;;;;;;;4.18;87.00;103282.75;5072088;28;20031;-68
2022/01/22 00:29:09;;;;;;;19.95;7.88;;;;;;;4.18;87.08;103271.34;5074465;28;20032;-68
2022/01/22 00:31:35;;;;;;;17.88;8.07;;;;;;;4.16;87.66;103273.06;5073372;28;20116;-68
2022/01/22 00:34:01;;;;;;;12.48;7.90;;;;;;;4.13;87.36;103257.25;5076687;28;20039;-68
2022/01/22 00:36:27;;;;;;;15.48;7.65;;;;;;;4.16;87.00;103263.41;5089607;28;20487;-68
2022/01/22 00:38:55;;;;;;;18.08;8.38;;;;;;;4.22;87.14;103257.28;5088955;28;20037;-68
2022/01/22 00:41:21;;;;;;;16.40;8.27;;;;;;;4.14;87.57;103256.38;5071464;28;20602;-68
2022/01/22 00:43:46;;;;;;;19.20;9.15;;;;;;;4.13;87.97;103257.25;5074259;28;20059;-68
2022/01/22 00:46:12;;;;;;;14.63;8.75;;;;;;;4.15;87.53;103255.50;5073528;28;20387;-68
2022/01/22 00:48:37;;;;;;;15.18;8.57;;;;;;;4.12;87.88;103260.75;5073142;28;20025;-68
2022/01/22 00:51:03;;;;;;;19.73;8.77;;;;;;;4.12;87.50;103255.47;5073878;28;20479;-68
2022/01/22 00:53:29;;;;;;;21.05;9.13;;;;;;;4.15;87.98;103260.75;5072249;28;20033;-68
2022/01/22 00:55:54;;;;;;;19.20;9.15;;;;;;;4.13;88.31;103258.13;5074061;28;20093;-68
2022/01/22 00:58:20;;;;;;;15.23;8.52;;;;;;;4.14;87.63;103251.97;5073807;28;20040;-68
2022/01/22 01:00:45;;;;;;;23.98;9.75;;;;;;;4.15;87.51;103256.41;5073592;28;20033;-68
2022/01/22 01:03:11;;;;;;;20.95;9.70;;;;;;;4.16;87.99;103266.03;5055118;28;20113;-68
2022/01/22 01:05:36;;;;;;;18.05;9.55;;;;;;;4.15;87.58;103269.56;5072695;28;20053;-68
2022/01/22 01:08:04;;;;;;;18.42;9.30;;;;;;;4.17;87.74;103267.78;5073710;28;20115;-68
2022/01/22 01:10:30;;;;;;;21.88;10.10;;;;;;;4.20;87.20;103278.34;5073189;28;20028;-68
2022/01/22 01:12:58;;;;;;;23.67;10.65;;;;;;;4.17;87.41;103274.81;5075733;28;20498;-68
2022/01/22 01:15:40;;;;;;;24.67;11.02;;;;;;;4.19;87.54;103280.97;5071522;28;20107;-68
2022/01/22 01:34:21;;;;;;;21.73;11.45;;;;;;;4.25;88.06;103270.47;5073027;28;20072;-68
2022/01/22 01:36:47;;;;;;;19.33;11.15;;;;;;;4.24;87.65;103273.97;5071958;28;20032;-68
2022/01/22 01:39:18;;;;;;;17.00;10.65;;;;;;;4.27;88.05;103271.34;5071664;28;20043;-68
2022/01/22 01:42:01;;;;;;;16.67;11.77;;;;;;;4.26;87.55;103274.84;5071992;28;20094;-68
2022/01/22 01:44:27;;;;;;;22.67;11.77;;;;;;;4.23;88.58;103270.44;5072337;28;20040;-68
2022/01/22 01:46:57;;;;;;;22.20;11.35;;;;;;;4.29;87.45;103280.13;5072166;28;20039;-68
2022/01/22 01:49:23;;;;;;;19.15;11.45;;;;;;;4.24;88.16;103276.63;5071386;28;20020;-68
2022/01/22 01:51:48;;;;;;;19.50;11.48;;;;;;;4.31;88.18;103278.38;5070719;28;20070;-68
2022/01/22 01:59:47;;;;;;;25.63;12.75;;;;;;;4.22;89.14;103279.22;5071763;28;20067;-68
2022/01/22 02:02:12;;;;;;;20.88;12.43;;;;;;;4.23;88.93;103259.91;5072066;28;20028;-68
2022/01/22 02:04:38;;;;;;;23.63;13.20;;;;;;;4.27;89.00;103263.44;5071594;28;20541;-68
2022/01/22 02:07:04;;;;;;;20.33;12.60;;;;;;;4.21;88.66;103252.91;5071650;28;20107;-68
2022/01/22 02:09:33;;;;;;;24.63;13.25;;;;;;;4.22;88.68;103260.78;5072008;28;20450;-68
2022/01/22 02:12:44;;;;;;;22.13;14.07;;;;;;;4.20;89.25;103265.16;5070525;28;20056;-68
2022/01/22 02:26:00;;;;;;;22.25;16.08;;;;;;;4.15;89.61;103253.75;5071477;28;20043;-68
2022/01/22 02:28:25;;;;;;;26.08;16.15;;;;;;;4.23;89.04;103259.03;5070132;28;20032;-68
2022/01/22 02:30:58;;;;;;;29.10;17.90;;;;;;;4.25;89.23;103260.78;5070897;28;20032;-68
2022/01/22 02:33:35;;;;;;;25.55;17.42;;;;;;;4.26;89.93;103257.28;5071374;28;20028;-68
2022/01/22 02:36:12;;;;;;;24.98;17.58;;;;;;;4.28;91.03;103265.19;5069596;28;20554;-68
2022/01/22 02:41:29;;;;;;;26.38;19.17;;;;;;;4.28;90.29;103268.69;5071241;28;20046;-68
2022/01/22 02:43:55;;;;;;;28.88;19.25;;;;;;;4.20;90.82;103251.13;5070131;28;20032;-68
2022/01/22 02:46:26;;;;;;;26.20;20.23;;;;;;;4.23;91.43;103265.16;5070140;28;20102;-68
2022/01/22 02:48:56;;;;;;;29.30;19.85;;;;;;;4.28;91.43;103271.34;5071138;28;20039;-68
2022/01/22 02:51:23;;;;;;;30.30;20.33;;;;;;;4.27;91.62;103280.13;5071267;28;20028;-68
2022/01/22 02:53:53;;;;;;;30.52;21.17;;;;;;;4.19;91.30;103265.19;5071231;28;20029;-68
2022/01/22 02:56:19;;;;;;;33.30;19.92;;;;;;;4.23;91.22;103274.84;5071026;28;20026;-68
2022/01/22 02:58:47;;;;;;;27.35;20.63;;;;;;;4.23;92.05;103280.09;5070822;28;20028;-68
2022/01/22 03:01:15;;;;;;;29.92;21.40;;;;;;;4.23;91.25;103277.47;5070688;28;20054;-68
2022/01/22 03:03:43;;;;;;;28.98;20.27;;;;;;;4.24;91.65;103273.97;5071146;28;20027;-68
2022/01/22 03:06:10;;;;;;;26.70;20.00;;;;;;;4.26;91.07;103277.47;5070841;28;20071;-68
2022/01/22 03:08:38;;;;;;;30.67;21.27;;;;;;;4.28;91.64;103275.72;5070790;28;20020;-68
2022/01/22 03:11:15;;;;;;;35.67;21.70;;;;;;;4.29;91.29;103277.47;5070335;28;20068;-68
2022/01/22 03:19:05;;;;;;;30.80;21.35;;;;;;;4.35;91.66;103273.97;5071016;28;20121;-68
2022/01/22 03:21:38;;;;;;;35.45;22.02;;;;;;;4.34;92.03;103267.84;5070316;28;20025;-68
2022/01/22 03:29:39;;;;;;;30.80;21.80;;;;;;;4.30;92.13;103272.22;5071023;28;20407;-68
2022/01/22 03:32:07;;;;;;;34.97;23.17;;;;;;;4.29;92.27;103278.38;5068395;28;20021;-68
2022/01/22 03:34:39;;;;;;;33.05;22.45;;;;;;;4.25;92.54;103263.44;5070634;28;20110;-68
2022/01/22 03:37:05;;;;;;;37.47;23.60;;;;;;;4.23;92.79;103269.56;5070357;28;20031;-68
2022/01/22 03:39:30;;;;;;;34.35;25.27;;;;;;;4.29;92.30;103270.47;5070658;28;20483;-68
2022/01/22 03:41:56;;;;;;;33.00;24.80;;;;;;;4.33;92.67;103281.91;5068273;28;20024;-68
2022/01/22 03:44:22;;;;;;;34.25;24.73;;;;;;;4.32;92.74;103267.84;5070720;28;20028;-68
2022/01/22 03:46:48;;;;;;;36.15;25.73;;;;;;;4.30;92.31;103280.13;5070582;28;20069;-68
2022/01/22 03:49:16;;;;;;;34.47;26.00;;;;;;;4.29;92.61;103280.13;5069085;28;20111;-68
2022/01/22 03:51:41;;;;;;;37.95;26.63;;;;;;;4.29;92.58;103278.38;5070661;28;20032;-68
2022/01/22 03:54:09;;;;;;;37.15;25.95;;;;;;;4.28;93.11;103284.50;5073907;28;20051;-68
2022/01/22 03:56:34;;;;;;;41.38;28.30;;;;;;;4.30;93.24;103274.88;5074309;28;20052;-68
2022/01/22 03:59:02;;;;;;;42.80;29.58;;;;;;;4.25;93.55;103268.69;5074100;28;20491;-68
2022/01/22 04:04:07;;;;;;;40.67;29.52;;;;;;;4.30;93.64;103272.22;5074419;28;20056;-68
2022/01/22 04:09:07;;;;;;;43.13;31.73;;;;;;;4.34;93.80;103270.47;5074056;28;20040;-68
2022/01/22 04:11:36;;;;;;;46.33;31.42;;;;;;;4.26;93.88;103264.31;5073950;28;20082;-68
2022/01/22 04:14:06;;;;;;;43.58;30.83;;;;;;;4.35;93.99;103266.94;5073743;28;20063;-68
2022/01/22 04:16:35;;;;;;;48.35;31.73;;;;;;;4.30;93.91;103258.19;5074198;28;20347;-68
2022/01/22 04:27:21;;;;;;;52.08;34.75;;;;;;;4.33;93.92;103268.72;5074158;28;20127;-68
2022/01/22 04:29:47;;;;;;;53.60;35.00;;;;;;;4.37;94.24;103270.47;5088551;28;20082;-68
2022/01/22 04:32:13;;;;;;;52.03;34.20;;;;;;;4.37;94.55;103266.97;5073297;28;20108;-68
2022/01/22 04:34:38;;;;;;;55.53;35.38;;;;;;;4.39;94.50;103267.88;5073574;28;20039;-68
2022/01/22 04:37:03;;;;;;;49.13;35.25;;;;;;;4.36;95.07;103270.50;5073314;28;20029;-68
2022/01/22 04:39:29;;;;;;;50.85;34.78;;;;;;;4.36;94.58;103259.97;5073496;28;20032;-68
2022/01/22 04:41:56;;;;;;;54.42;36.28;;;;;;;4.36;94.71;103263.47;5073088;28;20119;-68
2022/01/22 04:44:28;;;;;;;47.72;35.80;;;;;;;4.36;94.65;103268.72;5072560;28;20029;-68
2022/01/22 04:47:13;;;;;;;48.83;35.67;;;;;;;4.40;94.97;103273.13;5073305;28;20109;-69
2022/01/22 04:54:58;;;;;;;50.65;35.35;;;;;;;4.41;94.20;103268.72;5073070;28;20067;-68
2022/01/22 04:55:12;;;;;;;51.92;36.55;;;;;;;4.40;94.60;103269.59;5069952;28;20072;-68
2022/01/22 04:57:40;;;;;;;55.95;34.75;;;;;;;4.41;94.74;103271.34;5073449;28;20446;-68
2022/01/22 05:00:10;;;;;;;55.85;36.15;;;;;;;4.43;94.68;103274.88;5073099;28;20032;-68
2022/01/22 05:02:36;;;;;;;55.38;34.40;;;;;;;4.39;94.20;103268.75;5070982;28;20031;-68
2022/01/22 05:05:03;;;;;;;49.25;34.58;;;;;;;4.42;94.62;103267.88;5071483;28;20135;-68
2022/01/22 05:07:28;;;;;;;49.15;34.05;;;;;;;4.43;94.88;103270.50;5073365;28;20099;-68
2022/01/22 05:09:53;;;;;;;58.75;37.00;;;;;;;4.36;94.38;103255.56;5070814;28;20040;-68
2022/01/22 05:12:19;;;;;;;52.17;34.75;;;;;;;4.44;94.24;103255.56;5073692;28;20020;-68
2022/01/22 05:14:45;;;;;;;60.58;36.53;;;;;;;4.46;94.65;103253.81;5071025;28;20078;-68
2022/01/22 05:17:11;;;;;;;53.00;35.65;;;;;;;4.46;94.58;103259.06;5072282;28;20137;-68
2022/01/22 05:24:48;;;;;;;47.83;33.40;;;;;;;4.48;95.24;103262.59;5072043;28;20041;-68
2022/01/22 05:27:31;;;;;;;50.75;33.90;;;;;;;4.47;94.70;103258.19;5071856;28;20040;-68
2022/01/22 05:37:38;;;;;;;52.67;32.92;;;;;;;4.57;94.97;103245.94;5072849;28;20578;-68
2022/01/22 05:40:07;;;;;;;52.17;34.70;;;;;;;4.52;94.55;103251.19;5070855;28;20037;-68
2022/01/22 05:42:36;;;;;;;52.67;34.40;;;;;;;4.58;95.08;103259.09;5071400;28;20097;-68
2022/01/22 05:45:05;;;;;;;51.33;33.28;;;;;;;4.53;94.32;103250.31;5072231;28;20028;-68
2022/01/22 05:47:31;;;;;;;54.00;34.20;;;;;;;4.59;94.50;103258.22;5072886;28;20028;-68
2022/01/22 05:49:58;;;;;;;51.38;32.90;;;;;;;4.55;94.24;103256.44;5070440;28;20094;-68
2022/01/22 05:52:38;;;;;;;46.80;33.75;;;;;;;4.58;94.88;103255.56;5070100;28;20063;-68
2022/01/22 06:00:23;;;;;;;44.75;33.00;;;;;;;4.54;94.42;103274.03;5071486;28;20127;-68
2022/01/22 06:02:48;;;;;;;50.85;33.50;;;;;;;4.57;94.82;103267.88;5071337;28;20521;-68
2022/01/22 06:05:18;;;;;;;50.03;32.50;;;;;;;4.56;94.69;103263.50;5071240;28;20044;-68
2022/01/22 06:07:43;;;;;;;46.03;31.17;;;;;;;4.55;94.86;103269.63;5072238;28;20029;-68
2022/01/22 06:10:25;;;;;;;49.80;32.60;;;;;;;4.60;94.99;103272.28;5070420;28;20029;-68
2022/01/22 06:15:16;;;;;;;52.50;32.97;;;;;;;4.57;94.41;103267.88;5069948;28;20098;-68
2022/01/22 06:17:42;;;;;;;56.35;33.33;;;;;;;4.60;94.64;103275.78;5070812;28;20033;-68
2022/01/22 06:20:12;;;;;;;47.88;32.70;;;;;;;4.62;94.88;103275.78;5070210;28;20036;-68
2022/01/22 06:22:38;;;;;;;51.30;31.98;;;;;;;4.62;94.85;103270.50;5070370;28;20060;-68
2022/01/22 06:25:04;;;;;;;51.83;31.42;;;;;;;4.61;95.26;103263.47;5071561;28;20021;-68
2022/01/22 06:27:31;;;;;;;48.28;32.55;;;;;;;4.61;94.90;103274.91;5071745;28;20536;-68
2022/01/22 06:29:57;;;;;;;48.25;32.88;;;;;;;4.62;95.29;103265.22;5071172;28;20391;-68
2022/01/22 06:32:22;;;;;;;48.67;30.65;;;;;;;4.58;95.13;103255.56;5071501;28;20021;-68
2022/01/22 06:34:48;;;;;;;46.65;32.65;;;;;;;4.62;95.70;103270.50;5070941;28;20103;-68
2022/01/22 06:37:13;;;;;;;48.58;33.78;;;;;;;4.64;95.22;103269.63;5069982;28;20032;-68
2022/01/22 06:42:25;;;;;;;49.00;31.70;;;;;;;4.62;95.06;103281.03;5071727;28;20043;-68
2022/01/22 06:44:51;;;;;;;43.58;30.25;;;;;;;4.64;95.35;103276.66;5069645;28;20035;-68
2022/01/22 06:47:19;;;;;;;47.40;31.35;;;;;;;4.57;95.16;103272.28;5070665;28;20028;-68
2022/01/22 06:49:44;;;;;;;47.80;31.33;;;;;;;4.65;95.01;103287.22;5071111;28;20039;-68
2022/01/22 06:52:10;;;;;;;46.15;29.95;;;;;;;4.66;95.63;103285.47;5070827;28;20395;-68
2022/01/22 06:54:35;;;;;;;44.58;30.42;;;;;;;4.71;95.59;103294.25;5071186;28;20099;-68
2022/01/22 06:57:00;;;;;;;39.20;28.83;;;;;;;4.72;95.62;103291.59;5069737;28;20502;-68
2022/01/22 06:59:26;;;;;;;46.35;28.88;;;;;;;4.75;95.03;103293.38;5069664;28;20033;-68
2022/01/22 07:01:54;;;;;;;46.47;28.85;;;;;;;4.76;94.36;103289.84;5071250;28;20490;-68
2022/01/22 07:04:23;;;;;;;43.30;28.67;;;;;;;4.73;94.92;103289.84;5070727;28;20031;-68
2022/01/22 07:06:48;;;;;;;52.58;28.45;;;;;;;4.75;94.48;103299.53;5070840;28;20070;-68
2022/01/22 07:09:14;;;;;;;44.67;27.60;;;;;;;4.74;94.82;103295.13;5070759;28;20040;-68
2022/01/22 07:11:39;;;;;;;41.35;27.33;;;;;;;4.71;94.92;103284.59;5070051;28;20040;-68
2022/01/22 07:14:05;;;;;;;45.42;30.08;;;;;;;4.78;95.03;103299.53;5069210;28;20040;-68
2022/01/22 07:16:30;;;;;;;46.95;28.33;;;;;;;4.77;94.52;103304.81;5071195;28;20403;-68
2022/01/22 07:19:02;;;;;;;43.25;28.42;;;;;;;4.78;95.00;103319.75;5070534;28;20117;-68
2022/01/22 07:21:30;;;;;;;41.22;28.60;;;;;;;4.78;94.69;103327.66;5053649;28;20471;-68
2022/01/22 07:24:22;;;;;;;45.33;28.27;;;;;;;4.78;94.81;103328.53;5071375;28;20048;-68
2022/01/22 07:26:44;;;;;;;49.67;27.70;;;;;;;4.80;94.97;103339.09;5070149;28;20039;-68
2022/01/22 07:29:10;;;;;;;44.50;27.77;;;;;;;4.77;95.24;103331.16;5069427;28;20047;-68
2022/01/22 07:31:36;;;;;;;41.65;28.10;;;;;;;4.82;95.24;103331.16;5070994;28;20028;-68
2022/01/22 07:34:01;;;;;;;44.17;27.30;;;;;;;4.81;95.29;103338.19;5070201;28;20036;-68
2022/01/22 07:36:26;;;;;;;43.13;26.90;;;;;;;4.81;95.42;103335.56;5070850;28;20025;-68
2022/01/22 07:38:52;;;;;;;42.95;27.63;;;;;;;4.82;95.63;103341.69;5070599;28;20056;-68
2022/01/22 07:41:18;;;;;;;47.85;27.73;;;;;;;4.82;95.80;103337.31;5070557;28;20391;-68
2022/01/22 07:43:44;;;;;;;44.70;26.63;;;;;;;4.83;95.78;103343.47;5069608;28;20043;-68
2022/01/22 07:46:11;;;;;;;48.15;28.00;;;;;;;4.82;95.56;103350.47;5070083;28;20029;-68
2022/01/22 07:48:37;;;;;;;41.65;26.70;;;;;;;4.83;95.82;103347.00;5070417;28;20056;-68
2022/01/22 07:51:02;;;;;;;42.92;28.08;;;;;;;4.85;95.59;103341.72;5069203;28;20483;-68
2022/01/22 07:53:28;;;;;;;45.15;26.73;;;;;;;4.82;95.91;103339.94;5070357;28;20032;-68
2022/01/22 07:55:53;;;;;;;45.92;27.42;;;;;;;4.84;96.08;103345.22;5068991;28;20127;-68
2022/01/22 07:58:19;;;;;;;44.65;27.08;;;;;;;4.82;95.69;103337.31;5068899;28;20029;-68
2022/01/22 08:00:46;;;;;;;48.67;27.73;;;;;;;4.86;96.02;103339.09;5069046;28;20100;-68
2022/01/22 08:03:12;;;;;;;38.70;26.35;;;;;;;4.87;95.75;103339.97;5069546;28;20032;-68
2022/01/22 08:05:37;;;;;;;47.70;26.90;;;;;;;4.85;95.43;103337.31;5068161;28;20056;-68
2022/01/22 08:08:04;;;;;;;40.75;27.10;;;;;;;4.85;95.57;103337.31;5085926;28;20118;-68
2022/01/22 08:10:30;;;;;;;42.28;25.45;;;;;;;4.88;96.18;103336.44;5085029;28;20058;-68
2022/01/22 08:12:55;;;;;;;39.13;27.13;;;;;;;4.91;95.73;103337.34;5070363;28;20063;-68
2022/01/22 08:15:22;;;;;;;42.08;26.88;;;;;;;4.89;96.25;103332.94;5069262;28;20085;-68
2022/01/22 08:17:47;;;;;;;49.40;27.23;;;;;;;4.93;95.95;103340.84;5063671;28;20531;-68
2022/01/22 08:20:14;;;;;;;44.20;26.50;;;;;;;4.95;95.51;103328.53;5070025;28;20107;-68
2022/01/22 08:22:41;;;;;;;41.38;26.27;;;;;;;4.94;95.72;103332.06;5070189;28;20456;-68
2022/01/22 08:25:07;;;;;;;40.50;26.20;;;;;;;4.94;95.33;103329.44;5070389;28;20113;-69
2022/01/22 08:27:40;;;;;;;44.38;25.58;;;;;;;4.94;95.40;103332.06;5070305;28;20029;-69
2022/01/22 08:30:09;;;;;;;41.20;25.85;;;;;;;4.97;95.73;103339.06;5084649;28;20398;-69
2022/01/22 08:37:51;;;;;;;39.38;24.33;;;;;;;5.06;95.34;103335.56;5070000;28;20450;-69
2022/01/22 08:40:17;;;;;;;40.17;24.75;;;;;;;5.06;94.99;103333.84;5072863;28;20052;-69
2022/01/22 08:42:45;;;;;;;38.92;23.63;;;;;;;5.06;94.75;103333.84;5072356;28;20395;-69
2022/01/22 08:45:10;;;;;;;40.65;23.67;;;;;;;5.06;94.57;103325.00;5072851;28;20028;-69
2022/01/22 08:47:36;;;;;;;38.38;23.25;;;;;;;5.11;95.11;103328.53;5072166;28;20028;-69
2022/01/22 08:50:02;;;;;;;37.50;24.08;;;;;;;5.09;94.79;103325.00;5073084;28;20471;-69
2022/01/22 08:52:34;;;;;;;38.88;24.08;;;;;;;5.14;94.94;103332.03;5073240;28;20032;-69
2022/01/22 08:55:00;;;;;;;37.83;24.40;;;;;;;5.15;94.41;103333.81;5072860;28;20472;-69
2022/01/22 08:57:25;;;;;;;35.92;23.38;;;;;;;5.20;94.05;103336.44;5071649;28;20036;-68
2022/01/22 08:59:53;;;;;;;36.22;21.85;;;;;;;5.20;93.62;103342.59;5071903;28;20028;-68
2022/01/22 09:02:19;;;;;;;35.15;20.88;;;;;;;5.20;94.49;103341.72;5072198;28;20039;-69
2022/01/22 09:04:44;;;;;;;36.83;22.92;;;;;;;5.23;94.64;103347.91;5073047;28;20383;-68
2022/01/22 09:07:10;;;;;;;46.20;21.58;;;;;;;5.23;94.60;103357.53;5072919;28;20435;-69
2022/01/22 09:09:36;;;;;;;50.70;21.92;;;;;;;5.22;94.05;103354.03;5073116;28;20059;-69
2022/01/22 09:12:04;;;;;;;47.90;23.20;;;;;;;5.24;94.36;103362.84;5071205;28;20012;-69
2022/01/22 09:14:30;;;;;;;37.95;21.00;;;;;;;5.27;93.80;103364.59;5071471;28;20070;-69
2022/01/22 09:16:58;;;;;;;34.10;22.50;;;;;;;5.31;94.40;103365.47;5072756;28;20070;-69
2022/01/22 09:19:27;;;;;;;35.88;21.30;;;;;;;5.33;94.34;103369.88;5073285;28;20029;-69
2022/01/22 09:21:53;;;;;;;37.15;23.60;;;;;;;5.35;93.67;103376.00;5073216;28;20033;-69
2022/01/22 09:24:19;;;;;;;30.88;22.10;;;;;;;5.36;94.02;103377.78;5057464;28;20060;-69
2022/01/22 09:26:45;;;;;;;36.35;21.55;;;;;;;5.36;93.76;103372.50;5071529;28;20029;-69
2022/01/22 09:29:11;;;;;;;34.40;21.17;;;;;;;5.36;93.82;103372.50;5073234;28;20073;-69
2022/01/22 09:31:37;;;;;;;31.15;22.10;;;;;;;5.41;93.82;103376.03;5072609;28;20020;-69
2022/01/22 09:34:02;;;;;;;30.90;21.95;;;;;;;5.41;94.16;103365.47;5073009;28;20040;-69
2022/01/22 09:36:31;;;;;;;49.97;24.27;;;;;;;5.39;94.04;103354.03;5072584;28;20028;-69
2022/01/22 09:38:57;;;;;;;40.50;22.55;;;;;;;5.44;93.76;103368.13;5073237;28;20028;-69
2022/01/22 09:41:24;;;;;;;41.47;23.13;;;;;;;5.46;93.73;103376.00;5072758;28;20099;-69
2022/01/22 09:43:52;;;;;;;39.75;23.77;;;;;;;5.39;93.59;103371.63;5071918;28;20040;-69
2022/01/22 09:46:20;;;;;;;38.60;22.00;;;;;;;5.39;93.90;103377.78;5071867;28;20482;-68
2022/01/22 09:48:47;;;;;;;33.42;22.05;;;;;;;5.46;93.89;103386.56;5072278;28;20028;-69
2022/01/22 09:51:13;;;;;;;33.35;23.20;;;;;;;5.51;93.65;103391.84;5072038;28;20223;-69
2022/01/22 09:53:40;;;;;;;31.42;22.35;;;;;;;5.50;93.45;103398.91;5076404;28;20038;-69
2022/01/22 09:56:06;;;;;;;34.85;22.17;;;;;;;5.46;93.62;103392.72;5071942;28;20040;-69
2022/01/22 09:58:31;;;;;;;37.47;22.67;;;;;;;5.52;93.87;103396.25;5074075;28;20089;-69
2022/01/22 10:01:28;;;;;;;37.92;22.65;;;;;;;5.54;93.35;103398.00;5071477;28;20399;-69
2022/01/22 10:03:56;;;;;;;37.80;22.13;;;;;;;5.56;92.75;103400.63;5071002;28;20033;-70
2022/01/22 10:06:26;;;;;;;38.78;21.83;;;;;;;5.57;93.69;103399.75;5072397;28;20113;-69
2022/01/22 10:09:04;;;;;;;39.20;21.40;;;;;;;5.62;93.30;103408.56;5072680;28;20103;-69
2022/01/22 10:11:29;;;;;;;36.33;22.15;;;;;;;5.62;93.73;103408.56;5073168;28;20047;-69
2022/01/22 10:13:59;;;;;;;33.72;22.95;;;;;;;5.65;93.23;103405.94;5070601;28;20028;-69
2022/01/22 10:16:33;;;;;;;36.35;22.60;;;;;;;5.62;93.44;103406.81;5071377;28;20567;-69
2022/01/22 10:19:20;;;;;;;39.95;21.42;;;;;;;5.64;92.80;103399.75;5072311;28;20024;-69
2022/01/22 10:21:57;;;;;;;34.90;20.73;;;;;;;5.65;93.17;103396.25;5070893;28;20027;-69
2022/01/22 10:24:29;;;;;;;33.22;21.83;;;;;;;5.66;93.21;103405.03;5071106;28;20035;-69
2022/01/22 10:30:00;;;;;;;38.90;23.15;;;;;;;5.66;93.49;103395.34;5072305;28;20037;-69
2022/01/22 10:32:42;;;;;;;34.40;22.58;;;;;;;5.68;92.99;103398.00;5087306;28;20053;-69
2022/01/22 10:35:12;;;;;;;32.00;21.77;;;;;;;5.70;92.90;103393.56;5071736;28;20032;-69
2022/01/22 10:37:38;;;;;;;33.33;22.95;;;;;;;5.70;92.78;103404.13;5071950;28;20459;-69
2022/01/22 10:40:26;;;;;;;32.90;23.38;;;;;;;5.77;93.15;103405.03;5070324;28;20032;-69
2022/01/22 10:42:52;;;;;;;36.03;23.00;;;;;;;5.76;92.25;103404.13;5071840;28;20052;-68
2022/01/22 10:45:29;;;;;;;34.88;22.95;;;;;;;5.76;92.48;103396.19;5071643;28;20021;-69
2022/01/22 10:48:21;;;;;;;35.60;23.95;;;;;;;5.79;93.05;103397.97;5071775;28;20020;-68
2022/01/22 10:51:03;;;;;;;37.20;24.67;;;;;;;5.79;92.39;103392.69;5070502;28;20025;-68
2022/01/22 10:53:43;;;;;;;33.03;24.98;;;;;;;5.81;92.92;103412.06;5070055;28;20025;-69
2022/01/22 10:56:12;;;;;;;31.20;24.65;;;;;;;5.81;92.44;103412.06;5071552;28;20522;-68
2022/01/22 10:58:53;;;;;;;36.10;24.60;;;;;;;5.81;92.45;103407.63;5071491;28;20103;-69
2022/01/22 11:01:19;;;;;;;36.88;23.77;;;;;;;5.82;92.05;103408.50;5069309;28;20060;-69
2022/01/22 11:06:29;;;;;;;38.30;24.77;;;;;;;5.81;92.01;103410.28;5069818;28;20126;-69
2022/01/22 11:08:55;;;;;;;37.65;25.00;;;;;;;5.80;91.87;103408.53;5071697;28;20466;-68
2022/01/22 11:11:25;;;;;;;38.58;24.25;;;;;;;5.80;92.25;103403.25;5071762;28;20024;-69
2022/01/22 11:13:51;;;;;;;37.33;23.80;;;;;;;5.83;92.01;103405.00;5071330;28;20025;-69
2022/01/22 11:16:18;;;;;;;35.40;23.23;;;;;;;5.84;92.13;103398.84;5069397;28;20037;-69
2022/01/22 11:18:48;;;;;;;36.75;23.02;;;;;;;5.88;92.13;103400.56;5068475;28;20031;-68
2022/01/22 11:21:15;;;;;;;40.20;23.77;;;;;;;5.92;90.99;103399.72;5075074;28;20304;-69
2022/01/22 11:23:42;;;;;;;33.25;22.67;;;;;;;5.82;91.34;103384.75;5072535;28;20391;-69
2022/01/22 11:26:08;;;;;;;37.78;25.40;;;;;;;5.85;91.81;103384.75;5070263;28;20025;-68
2022/01/22 11:28:36;;;;;;;36.55;26.02;;;;;;;5.84;91.72;103375.06;5070346;28;20070;-69
2022/01/22 11:31:02;;;;;;;36.17;24.40;;;;;;;5.87;91.77;103378.56;5070120;28;20024;-68
2022/01/22 11:33:31;;;;;;;35.40;25.35;;;;;;;5.89;91.29;103375.94;5067706;28;20013;-69
2022/01/22 11:36:04;;;;;;;33.28;25.13;;;;;;;5.92;91.37;103381.22;5070038;28;20024;-69
2022/01/22 11:38:34;;;;;;;36.60;25.70;;;;;;;5.96;91.45;103384.75;5085376;28;20459;-69
2022/01/22 11:41:04;;;;;;;39.78;24.83;;;;;;;5.94;91.17;103389.16;5069469;28;20399;-69
2022/01/22 11:44:17;;;;;;;34.63;25.52;;;;;;;6.04;91.98;103396.19;5069390;28;20030;-68
2022/01/22 11:46:51;;;;;;;45.78;28.23;;;;;;;6.01;91.42;103377.72;5068729;28;20031;-69
2022/01/22 11:49:21;;;;;;;38.97;26.73;;;;;;;6.00;90.56;103382.13;5067799;28;20492;-68
2022/01/22 11:51:50;;;;;;;39.03;26.48;;;;;;;6.02;91.06;103368.88;5070573;28;20038;-68
2022/01/22 11:54:19;;;;;;;47.25;28.30;;;;;;;6.03;90.96;103382.09;5069462;28;20077;-68
2022/01/22 11:56:52;;;;;;;37.28;27.58;;;;;;;6.04;91.14;103373.28;5070824;28;20032;-68
2022/01/22 11:59:19;;;;;;;38.50;27.80;;;;;;;6.06;91.04;103376.81;5070134;28;20546;-69
2022/01/22 12:01:50;;;;;;;37.08;26.65;;;;;;;6.05;90.97;103382.97;5070338;28;20036;-68
2022/01/22 12:04:21;;;;;;;39.22;27.33;;;;;;;6.03;91.07;103368.00;5068446;28;20043;-68
2022/01/22 12:07:02;;;;;;;40.78;27.75;;;;;;;6.11;90.70;103382.06;5069783;28;20178;-68
2022/01/22 12:09:33;;;;;;;44.47;27.23;;;;;;;6.10;90.40;103383.81;5070049;28;20028;-68
2022/01/22 12:15:06;;;;;;;41.42;26.73;;;;;;;5.99;90.37;103372.41;5073472;28;20044;-69
2022/01/22 12:17:47;;;;;;;47.97;28.73;;;;;;;6.09;90.83;103383.84;5073728;28;20085;-69
2022/01/22 12:23:17;;;;;;;42.50;28.70;;;;;;;6.04;91.04;103377.69;5073104;28;20048;-69
2022/01/22 12:25:50;;;;;;;42.15;28.50;;;;;;;6.00;91.38;103371.56;5074459;28;20029;-69
2022/01/22 12:28:38;;;;;;;42.88;30.17;;;;;;;6.07;91.58;103391.75;5073263;28;20020;-68
2022/01/22 12:31:17;;;;;;;39.67;29.20;;;;;;;6.06;91.25;103390.03;5073939;28;20028;-68
2022/01/22 12:33:42;;;;;;;42.90;27.98;;;;;;;6.05;91.38;103387.38;5073738;28;20103;-68
2022/01/22 12:36:38;;;;;;;38.17;28.08;;;;;;;6.05;91.50;103390.88;5072169;28;20104;-68
2022/01/22 12:39:09;;;;;;;42.05;29.17;;;;;;;6.01;91.38;103378.56;5073332;28;20051;-69
2022/01/22 12:44:26;;;;;;;45.38;29.55;;;;;;;5.99;91.75;103387.38;5072191;28;20368;-68
2022/01/22 12:46:55;;;;;;;39.28;28.83;;;;;;;5.97;91.64;103378.56;5072975;28;20028;-69
2022/01/22 12:49:23;;;;;;;53.65;30.10;;;;;;;5.99;91.48;103387.38;5073253;28;20483;-68
2022/01/22 12:52:04;;;;;;;45.08;30.25;;;;;;;5.95;91.52;103383.88;5071829;28;20131;-69
2022/01/22 12:54:36;;;;;;;42.97;29.40;;;;;;;5.96;92.11;103387.41;5067316;28;20029;-68
2022/01/22 12:57:15;;;;;;;40.97;30.40;;;;;;;6.00;91.95;103389.13;5069585;28;20361;-68
2022/01/22 12:59:49;;;;;;;42.10;29.92;;;;;;;6.00;91.72;103397.06;5082872;28;20070;-68
2022/01/22 13:02:15;;;;;;;43.65;28.48;;;;;;;5.95;91.82;103391.81;5075867;28;20032;-68
2022/01/22 13:04:40;;;;;;;42.22;29.50;;;;;;;5.96;91.96;103390.91;5089279;28;20031;-68
2022/01/22 13:07:12;;;;;;;43.08;30.45;;;;;;;5.94;91.94;103390.03;5077657;28;20044;-68
2022/01/22 13:09:48;;;;;;;50.78;29.83;;;;;;;5.92;91.66;103390.00;5081126;28;20020;-68
2022/01/22 13:12:16;;;;;;;40.72;30.58;;;;;;;5.92;91.58;103387.38;5077414;28;20498;-68